Tiempo atmosférico en la estación meteorológica de Xàtiva, València/Valencia (88 m.)



Fecha
DESCASC
Temp. máxima en grados centígrados (hora)
DESCASC
Temp. mínima en grados centígrados (hora)
DESCASC
Temp. media en grados centígrados
DESCASC
Racha de viento máxima en m/sg (hora)
DESCASC
Velocidad máxima media en intervalos de 10 minutos(hora)
DESCASC
Precipitaciones diarias en mm
DESCASC
Precipitaciones de 00:00 a 06:00 en mm
DESCASC
Precipitaciones de 06:00 a 12:00 en mm
DESCASC
Precipitaciones de 12:00 a 18:00 en mm
DESCASC
Precipitaciones de 18:00 a 24:00 en mm
DESCASC
25-04-2019 21.8 (19:00) 14.3 (23:50) 18 16.39 (18:40) 7.78 (18:40) -- -- -- -- --
24-04-2019 23.9 (17:50) 9.7 (06:20) 16.8 13.89 (12:40) 7.5 (12:40) -- -- -- -- --
23-04-2019 22.4 (14:10) 9.8 (07:30) 16.1 14.17 (15:40) 8.06 (15:40) -- -- -- -- --
22-04-2019 17.4 (16:40) 11.1 (00:00) 14.3 10.28 (00:20) 6.39 (00:20) -- -- -- -- --
21-04-2019 13.3 (15:30) 11.2 (00:00) 12.3 14.72 (17:20) 8.06 (19:10) -- -- -- -- --
20-04-2019 14.2 (19:10) 12.2 (00:00) 13.2 16.67 (06:30) 8.89 (06:40) -- -- -- -- --
19-04-2019 14.5 (18:20) 11.9 (00:00) 13.2 12.5 (22:00) 7.5 (17:10) -- -- -- -- --
18-04-2019 15 (11:00) 12.1 (00:00) 13.6 10.83 (18:30) 5.56 (18:40) -- -- -- -- --
17-04-2019 20.3 (14:10) 12.6 (00:00) 16.4 8.06 (13:40) 5.56 (18:50) -- -- -- -- --
16-04-2019 22.5 (16:00) 9.8 (00:00) 16.2 9.17 (17:00) 6.39 (17:40) -- -- -- -- --
15-04-2019 20.4 (18:00) 12.1 (00:00) 16.3 7.78 (18:10) 4.44 (18:40) -- -- -- -- --
14-04-2019 30.4 (17:20) 6.6 (00:00) 18.5 11.39 (14:20) 5.56 (15:30) -- -- -- -- --
13-04-2019 24.4 (16:30) 6.7 (00:00) 15.5 7.78 (14:10) 3.61 (14:00) -- -- -- -- --
12-04-2019 24.1 (17:50) 7.4 (07:50) 15.8 7.78 (17:50) 3.89 (18:10) -- -- -- -- --
11-04-2019 24.6 (17:40) 6.3 (00:00) 15.5 7.78 (17:40) 4.17 (17:50) -- -- -- -- --
10-04-2019 21.3 (16:00) 10.2 (00:00) 15.7 14.17 (16:10) 8.33 (18:20) -- -- -- -- --
09-04-2019 21.2 (15:50) 10.6 (00:00) 15.9 17.22 (12:20) 9.44 (12:20) -- -- -- -- --
08-04-2019 23 (16:50) 13 (00:00) 18 13.61 (17:50) 7.5 (17:50) -- -- -- -- --
07-04-2019 20.9 (17:00) 8.9 (00:00) 14.9 13.89 (15:40) 7.5 (14:30) -- -- -- -- --
06-04-2019 16.6 (13:10) 7.4 (00:00) 12 13.89 (17:30) 7.78 (16:40) -- -- -- -- --
05-04-2019 21.8 (14:40) 7.8 (00:00) 14.8 14.17 (16:00) 8.06 (15:50) -- -- -- -- --
04-04-2019 21.1 (16:50) 8.5 (00:00) 14.8 18.33 (16:20) 5.83 (18:40) -- -- -- -- --
03-04-2019 25.4 (16:10) 9.9 (03:20) 17.6 13.61 (12:30) 6.11 (14:10) -- -- -- -- --
02-04-2019 23.5 (17:10) 8 (00:00) 15.8 15.56 (18:00) 9.44 (18:00) -- -- -- -- --
01-04-2019 14.6 (18:10) 10.9 (00:00) 12.8 6.11 (01:20) 3.33 (00:30) -- -- -- -- --
31-03-2019 12.6 (18:00) 8.5 (00:00) 10.6 9.44 (22:50) 5.28 (23:00) -- -- -- -- --
30-03-2019 17.4 (13:50) 4.9 (00:00) 11.1 9.17 (14:40) 5.28 (14:30) -- -- -- -- --
29-03-2019 18.6 (12:40) 7.5 (00:00) 13.1 10 (16:10) 5.83 (17:30) -- -- -- -- --
28-03-2019 20.8 (13:40) 3.3 (00:00) 12 8.89 (14:20) 5.56 (14:50) -- -- -- -- --
27-03-2019 19.1 (15:40) 4.3 (00:00) 11.7 9.17 (14:20) 4.44 (16:20) -- -- -- -- --

Gráficas

Temp. máximas Temp. mínimas Temp. medias Precipitaciones Rachas de viento máximas Velocidades máximas media en intervalos de 10 minutos

Datos horarios

Fecha y hora oficial Temperatura (ºC) Velocidad del viento (km/h) Dirección del viento Racha (km/h) Dirección de racha Precipitación (mm) Presión (hPa) Tendencia (hPa) Humedad (%)
2019-04-25 23:00:00 15.2 9 Oeste 29 Sur -- 1007.1 3.5 55
2019-04-25 22:00:00 15.9 14 Sudoeste 58 Oeste -- 1006 3.3 51
2019-04-25 21:00:00 17.2 21 Oeste 43 Oeste -- 1005.1 2.9 46
2019-04-25 20:00:00 18.2 11 Sudoeste 55 Oeste -- 1003.6 1.1 43
2019-04-25 19:00:00 21.6 27 Oeste 59 Oeste -- 1002.7 0.5 29
2019-04-25 18:00:00 20.2 18 Sudoeste 45 Oeste -- 1002.2 -0.6 33
2019-04-25 17:00:00 19.5 24 Oeste 50 Oeste -- 1002.5 -0.5 40
2019-04-25 16:00:00 20.2 17 Sudoeste 31 Sudoeste -- 1002.2 -0.4 41
2019-04-25 15:00:00 19 15 Sudoeste 37 Noroeste -- 1002.8 1 48
2019-04-25 14:00:00 17.1 13 Oeste 44 Oeste -- 1003 1.5 53
2019-04-25 13:00:00 17.1 23 Oeste 39 Oeste -- 1002.6 1.9 57
2019-04-25 12:00:00 18.5 23 Oeste 36 Oeste -- 1001.8 1.5 53
2019-04-25 11:00:00 17.9 15 Noroeste 29 Oeste -- 1001.5 2.5 57
2019-04-25 10:00:00 16.9 15 Oeste 31 Oeste -- 1000.7 2.4 59
2019-04-25 09:00:00 16.1 13 Oeste 25 Noroeste -- 1000.3 1.7 60
2019-04-25 08:00:00 16.6 17 Sudoeste 31 Sur -- 999 0.7 50
2019-04-25 07:00:00 16.1 15 Sudoeste 27 Sudoeste -- 998.3 -0.5 52
2019-04-25 06:00:00 15.5 9 Sudoeste 17 Oeste -- 998.6 -0.3 54
2019-04-25 05:00:00 14.9 10 Oeste 18 Oeste -- 998.3 -1.3 59
2019-04-25 04:00:00 16.1 12 Sudoeste 22 Sudoeste -- 998.8 -0.7 54
2019-04-25 03:00:00 16.2 9 Sudoeste 20 Sudoeste -- 998.9 -0.7 54
2019-04-25 02:00:00 16 6 Este 22 Sudoeste -- 999.6 -0.3 58
2019-04-25 01:00:00 16.7 8 Sudoeste 17 Sudoeste -- 999.5 0.5 51
2019-04-25 00:00:00 17.1 7 Sudoeste 18 Sudoeste -- 999.6 1.5 50
2019-04-24 23:00:00 17.2 13 Sudoeste 23 Sudoeste -- 999.9 2.3 49
2019-04-24 22:00:00 18.4 15 Sudoeste 31 Sur -- 999 1.7 44
2019-04-24 21:00:00 19.2 15 Sur 39 Sur -- 998.1 0.9 43
2019-04-24 20:00:00 20.9 15 Sur 39 Sudoeste -- 997.6 0.1 36
2019-04-24 19:00:00 22.1 18 Sudoeste 38 Sudoeste -- 997.3 -0.8 32
2019-04-24 18:00:00 23.3 16 Sudoeste 36 Oeste -- 997.2 -1.3 28
2019-04-24 17:00:00 23.1 17 Sudoeste 32 Sudoeste -- 997.5 -1.5 27
2019-04-24 16:00:00 22.9 15 Sudoeste 38 Oeste -- 998.1 -1.4 28
2019-04-24 15:00:00 21.9 22 Oeste 47 Oeste -- 998.5 -1.5 31
2019-04-24 14:00:00 20.8 21 Oeste 43 Oeste -- 999 -0.9 30
2019-04-24 13:00:00 18.9 24 Sudoeste 50 Oeste -- 999.5 -0.5 28
2019-04-24 12:00:00 17.5 24 Sudoeste 42 Sudoeste -- 1000 0.6 32
2019-04-24 11:00:00 16.1 20 Sudoeste 37 Oeste -- 999.9 1.4 37
2019-04-24 10:00:00 13.7 12 Sudoeste 24 Sudoeste -- 1000 2.3 47
2019-04-24 09:00:00 11.8 9 Sudoeste 21 Sudoeste -- 999.4 2.4 53
2019-04-24 08:00:00 10.8 15 Sudoeste 25 Sudoeste -- 998.5 2.1 54
2019-04-24 07:00:00 10.1 9 Sur 20 Sur -- 997.7 1.7 57
2019-04-24 06:00:00 9.9 12 Sudoeste 30 Sudoeste -- 997 1.6 59
2019-04-24 05:00:00 10.2 11 Sudoeste 28 Sudoeste -- 996.4 1.1 57
2019-04-24 04:00:00 11 16 Sudoeste 31 Sudoeste -- 996 1.4 53
2019-04-24 03:00:00 10.9 18 Sudoeste 31 Oeste -- 995.4 1.4 55
2019-04-24 02:00:00 11.5 15 Sudoeste 29 Sudoeste -- 995.3 2.2 54
2019-04-24 01:00:00 12.1 17 Sudoeste 28 Sudoeste -- 994.6 2.7 52
2019-04-24 00:00:00 12.9 12 Sudoeste 32 Oeste -- 994 3.9 49
2019-04-23 23:00:00 13.6 14 Oeste 27 Oeste -- 993.1 4.3 45
2019-04-23 22:00:00 14.8 11 Oeste 34 Oeste -- 991.9 3.3 46
2019-04-23 21:00:00 15.6 5 Oeste 34 Noroeste -- 990.1 2.1 49
2019-04-23 20:00:00 18.5 17 Sudoeste 28 Sudoeste -- 988.8 0.1 38
2019-04-23 19:00:00 17 6 Nordeste 14 Nordeste -- 988.6 -0.6 70
2019-04-23 18:00:00 16.1 10 Este 18 Este -- 988 0 74
2019-04-23 17:00:00 16.8 5 Sudoeste 33 Oeste -- 988.7 0.8 62
2019-04-23 16:00:00 17.4 19 Oeste 51 Oeste -- 989.2 0.8 60
2019-04-23 15:00:00 21.5 12 Sudoeste 27 Oeste -- 988 -0.5 32
2019-04-23 14:00:00 22.3 14 Sudoeste 26 Oeste -- 987.9 -0.4 32
2019-04-23 13:00:00 20.9 6 Sudoeste 28 Sudoeste -- 988.4 0 41
2019-04-23 12:00:00 20.3 16 Sudoeste 26 Sudoeste -- 988.5 0.2 38
2019-04-23 11:00:00 19.6 6 Sudeste 12 Sudeste 0 988.3 0.3 46
2019-04-23 10:00:00 15.6 6 Sudoeste 14 Sudoeste 0 988.4 0.8 55
2019-04-23 09:00:00 14.3 7 Sudoeste 17 Sudoeste 0 988.3 0.7 68
2019-04-23 08:00:00 10.7 6 Oeste 11 Oeste 0 988 0 92
2019-04-23 07:00:00 10.1 3 Oeste 8 Sudoeste 0.2 987.6 -0.7 94
2019-04-23 06:00:00 10.5 2 Oeste 6 Norte 0 987.6 -1 94
2019-04-23 05:00:00 10.9 0 Calma 9 Oeste 0 988 -1.1 93
2019-04-23 04:00:00 11.4 4 Oeste 10 Oeste 0 988.3 -1.1 92
2019-04-23 03:00:00 10.8 3 Norte 7 Oeste 0 988.6 -1.4 92
2019-04-23 02:00:00 12 2 Noroeste 7 Oeste 0 989.1 -0.9 90
2019-04-23 01:00:00 13.4 2 Sudoeste 9 Oeste 0 989.4 -0.7 87
2019-04-23 00:00:00 13.6 5 Oeste 8 Oeste 0.2 990 0.2 88
2019-04-22 23:00:00 13.9 0 Calma 4 Sudeste 0 990 0.5 88
2019-04-22 22:00:00 14.4 3 Sudoeste 6 Oeste 0 990.1 0.3 83
2019-04-22 21:00:00 15.1 3 Sudoeste 12 Sur 0 989.8 0.1 72
2019-04-22 20:00:00 15.6 5 Sur 12 Sudeste 0.2 989.5 -0.4 69
2019-04-22 19:00:00 16 6 Sudeste 11 Sudeste 0 989.8 -0.6 70
2019-04-22 18:00:00 16.7 8 Sudeste 15 Este 0 989.7 -1.2 64
2019-04-22 17:00:00 17.4 3 Norte 12 Oeste 0 989.9 -1.6 58
2019-04-22 16:00:00 16.3 7 Sudoeste 16 Sudoeste 0.2 990.4 -1.6 74
2019-04-22 15:00:00 14.5 6 Oeste 14 Oeste 0 990.9 -0.8 86
2019-04-22 14:00:00 13.6 6 Nordeste 9 Este 0 991.5 -0.1 88
2019-04-22 13:00:00 14.1 5 Este 9 Este 0 992 0.4 84
2019-04-22 12:00:00 14.1 2 Oeste 7 Sudoeste 0.2 991.7 -0.1 83
2019-04-22 11:00:00 13.5 4 Oeste 12 Sudoeste 0 991.6 -0.2 88
2019-04-22 10:00:00 12.3 5 Sudoeste 18 Norte 0 991.6 0.1 92
2019-04-22 09:00:00 11.8 6 Noroeste 20 Nordeste 0 991.8 -0.1 94
2019-04-22 08:00:00 11.3 4 Sudoeste 12 Oeste 0 991.8 -0.6 95
2019-04-22 07:00:00 11.1 5 Sudoeste 15 Sudoeste 0 991.5 -1.6 97
2019-04-22 06:00:00 11.2 4 Oeste 12 Sudoeste 0 991.9 -2.2 97
2019-04-22 05:00:00 11.4 6 Sudoeste 18 Noroeste 0.2 992.4 -2.5 97
2019-04-22 04:00:00 11.4 12 Noroeste 22 Nordeste 0 993.1 -2.8 97
2019-04-22 03:00:00 11.5 14 Norte 23 Norte 0 994.1 -2.1 97
2019-04-22 02:00:00 11.3 8 Oeste 13 Oeste 0 994.9 -1.6 97
2019-04-22 01:00:00 11.2 4 Norte 37 Norte 0.2 995.9 -1.5 97
2019-04-22 00:00:00 11.3 23 Norte 49 Noroeste 0 996.2 -0.9 97
2019-04-21 23:00:00 11.2 15 Noroeste 31 Oeste 0 996.5 -0.9 96
2019-04-21 22:00:00 11.4 14 Noroeste 40 Norte 0 997.4 0.7 96
2019-04-21 21:00:00 11.4 25 Norte 44 Norte 0 997.1 -0.2 96
2019-04-21 20:00:00 11.6 17 Norte 52 Norte 0.2 997.4 -0.1 96
2019-04-21 19:00:00 11.8 21 Norte 50 Nordeste 0 996.7 -1 94
2019-04-21 18:00:00 11.8 12 Norte 53 Norte 0 997.3 -1 95
2019-04-21 17:00:00 12.1 24 Nordeste 48 Norte 0 997.5 -1.1 93
2019-04-21 16:00:00 13.2 21 Norte 44 Norte 0 997.7 -1.5 91
2019-04-21 15:00:00 12.9 19 Norte 32 Norte 0.2 998.3 -1.4 91
2019-04-21 14:00:00 12.2 18 Norte 33 Norte 0 998.6 -1.3 95
2019-04-21 13:00:00 11.9 20 Norte 45 Norte 0 999.2 -1.2 95
2019-04-21 12:00:00 12.2 19 Norte 36 Norte 0 999.7 -0.9 93
2019-04-21 11:00:00 12.4 12 Nordeste 33 Nordeste 0 999.9 -1.3 91
2019-04-21 10:00:00 11.9 16 Nordeste 30 Norte 0.2 1000.4 -0.8 92
2019-04-21 09:00:00 11.4 4 Nordeste 15 Norte 0 1000.6 -1 93
2019-04-21 08:00:00 11.5 9 Norte 25 Norte 0 1001.2 -1 93
2019-04-21 07:00:00 12.7 18 Nordeste 39 Nordeste 0.2 1001.2 -1.5 82
2019-04-21 06:00:00 12.5 10 Nordeste 28 Nordeste 0 1001.6 -2 83
2019-04-21 05:00:00 12.5 6 Norte 16 Norte 0 1002.2 -2.6 76
2019-04-21 04:00:00 12.6 6 Norte 27 Nordeste 0.2 1002.7 -2.5 77
2019-04-21 03:00:00 13 16 Norte 32 Norte 0 1003.6 -2 76
2019-04-21 02:00:00 13 15 Nordeste 46 Nordeste 0 1004.8 -0.9 77
2019-04-21 01:00:00 12.7 19 Nordeste 37 Norte 0.2 1005.2 -0.4 81
2019-04-21 00:00:00 12.2 21 Nordeste 39 Norte 0 1005.6 0.4 89
2019-04-20 23:00:00 13 23 Nordeste 48 Nordeste 0.2 1005.7 0.9 88
2019-04-20 22:00:00 13.4 25 Nordeste 50 Nordeste 0 1005.6 0.7 85
2019-04-20 21:00:00 13.4 25 Nordeste 51 Norte 0.2 1005.2 0.1 85
2019-04-20 20:00:00 14.1 28 Nordeste 50 Nordeste 0.2 1004.8 -0.4 81
2019-04-20 19:00:00 14 25 Nordeste 53 Nordeste 0 1004.9 -0.4 77
2019-04-20 18:00:00 13.7 17 Norte 49 Norte 0.2 1005.1 -0.3 82
2019-04-20 17:00:00 13.9 22 Nordeste 57 Norte 0.4 1005.2 -0.1 86
2019-04-20 16:00:00 13.8 24 Nordeste 50 Nordeste 0.4 1005.3 -0.2 86
2019-04-20 15:00:00 13.3 25 Nordeste 49 Nordeste 0.2 1005.4 -0.4 91
2019-04-20 14:00:00 13.2 23 Nordeste 47 Nordeste 0.6 1005.3 0 92
2019-04-20 13:00:00 12.9 25 Norte 43 Norte 0.4 1005.5 0.7 95
2019-04-20 12:00:00 12.7 19 Nordeste 36 Norte 0.4 1005.8 1.1 95
2019-04-20 11:00:00 12.7 22 Norte 45 Norte 0.6 1005.3 0.8 94
2019-04-20 10:00:00 12.7 25 Norte 47 Nordeste 0.4 1004.8 0.5 94
2019-04-20 09:00:00 12.9 22 Nordeste 49 Norte 0.4 1004.7 0.7 92
2019-04-20 08:00:00 13.2 24 Nordeste 54 Nordeste 0.6 1004.5 -0.8 90
2019-04-20 07:00:00 13.4 15 Norte 60 Norte 0.4 1004.3 -1 90
2019-04-20 06:00:00 13.7 32 Norte 53 Nordeste 0.6 1004 -1.9 88
2019-04-20 05:00:00 13.7 23 Nordeste 43 Nordeste 0.6 1005.3 -0.7 90
2019-04-20 04:00:00 13.4 22 Nordeste 48 Nordeste 0.8 1005.3 -1.3 93
2019-04-20 03:00:00 13.5 25 Nordeste 52 Nordeste 0.8 1005.9 -1.1 94
2019-04-20 02:00:00 13.6 30 Nordeste 58 Norte 1 1006 -0.9 94
2019-04-20 01:00:00 13.9 28 Nordeste 47 Nordeste 1 1006.6 0 94
2019-04-20 00:00:00 13.9 21 Nordeste 40 Nordeste 1.2 1007 0.9 95
2019-04-19 23:00:00 14.1 21 Nordeste 44 Nordeste 1.2 1006.9 1 94
2019-04-19 22:00:00 14.1 23 Nordeste 45 Norte 1.4 1006.6 0.9 94
2019-04-19 21:00:00 14 16 Norte 30 Norte 1.6 1006.1 0.8 95
2019-04-19 20:00:00 14.1 8 Nordeste 17 Norte 1.8 1005.9 1.1 95
2019-04-19 19:00:00 14.3 8 Nordeste 44 Este 2 1005.7 0.2 95
2019-04-19 18:00:00 14.4 18 Este 44 Nordeste 1 1005.3 0 94
2019-04-19 17:00:00 14.3 24 Nordeste 41 Nordeste 0.6 1004.8 -0.5 95
2019-04-19 16:00:00 12.3 4 Sudoeste 18 Sudoeste 0 1005.5 -0.2 95
2019-04-19 15:00:00 12.2 6 Oeste 11 Oeste 0.2 1005.3 -0.3 95
2019-04-19 14:00:00 12.3 5 Nordeste -- -- -- 1005.3 0.1 94
2019-04-19 13:00:00 12.6 3 Norte 7 Nordeste 0.2 1005.7 0.6 94
2019-04-19 12:00:00 13 3 Noroeste 13 Oeste 0.2 1005.6 0.6 94
2019-04-19 11:00:00 12.9 6 Sudoeste 10 Sudoeste 0 1005.2 0.6 94
2019-04-19 10:00:00 12.6 2 Sudeste 5 Nordeste 0.2 1005.1 0.8 96
2019-04-19 09:00:00 12.3 4 Nordeste 9 Sur 0 1005 0.9 95
2019-04-19 08:00:00 11.9 0 Calma 10 Oeste 0.2 1004.6 0.3 96
2019-04-19 07:00:00 12 6 Oeste 15 Oeste 0.4 1004.3 0 96
2019-04-19 06:00:00 12 6 Oeste 12 Oeste 0.6 1004.1 -0.3 96
2019-04-19 05:00:00 12.1 3 Oeste 8 Este 0.2 1004.3 0.4 96
2019-04-19 04:00:00 12.2 2 Sudoeste 4 Nordeste 0 1004.3 1 95
2019-04-19 03:00:00 12.2 3 Sudoeste 14 Sudoeste 0.2 1004.4 0.8 95
2019-04-19 02:00:00 12.1 6 Oeste 16 Oeste 0.2 1003.9 0 95
2019-04-19 01:00:00 12.1 3 Noroeste 16 Oeste 0.2 1003.3 0.3 95
2019-04-19 00:00:00 12.3 4 Noroeste 15 Oeste 0.2 1003.6 1.9 95
2019-04-18 23:00:00 12.3 6 Sur 16 Este 0.4 1003.9 1.7 94
2019-04-18 22:00:00 12.1 13 Oeste 28 Oeste 0.2 1003 1.1 94
2019-04-18 21:00:00 12.3 9 Nordeste 14 Nordeste 0 1001.7 0.8 94
2019-04-18 20:00:00 12.3 4 Oeste 23 Oeste 0.6 1002.2 1.6 93
2019-04-18 19:00:00 12.4 13 Oeste 39 Oeste 2.4 1001.9 0.4 94
2019-04-18 18:00:00 14.4 6 Noroeste 23 Nordeste 0.2 1000.9 -0.8 95
2019-04-18 17:00:00 14.7 16 Norte 28 Nordeste 0.8 1000.6 -1.3 95
2019-04-18 16:00:00 14.4 13 Norte 24 Norte 1 1001.5 -0.8 95
2019-04-18 15:00:00 14.5 8 Norte 19 Norte 1 1001.7 -1.3 94
2019-04-18 14:00:00 -- -- -- -- -- -- -- -- --
2019-04-18 13:00:00 -- -- -- -- -- -- -- -- --
2019-04-18 12:00:00 -- -- -- -- -- -- -- -- --
2019-04-18 11:00:00 -- -- -- -- -- -- -- -- --
2019-04-18 10:00:00 -- -- -- -- -- -- -- -- --
2019-04-18 09:00:00 -- -- -- -- -- -- -- -- --
2019-04-18 08:00:00 -- -- -- -- -- -- -- -- --
2019-04-18 07:00:00 -- -- -- -- -- -- -- -- --
2019-04-18 06:00:00 -- -- -- -- -- -- -- -- --
2019-04-18 05:00:00 -- -- -- -- -- -- -- -- --
2019-04-18 04:00:00 -- -- -- -- -- -- -- -- --
2019-04-18 03:00:00 -- -- -- -- -- -- -- -- --
2019-04-18 02:00:00 -- -- -- -- -- -- -- -- --
2019-04-18 01:00:00 -- -- -- -- -- -- -- -- --
2019-04-18 00:00:00 -- -- -- -- -- -- -- -- --
2019-04-17 23:00:00 -- -- -- -- -- -- -- -- --
2019-04-17 22:00:00 -- -- -- -- -- -- -- -- --
2019-04-17 21:00:00 -- -- -- -- -- -- -- -- --
2019-04-17 20:00:00 -- -- -- -- -- -- -- -- --
2019-04-17 19:00:00 -- -- -- -- -- -- -- -- --
2019-04-17 18:00:00 -- -- -- -- -- -- -- -- --
2019-04-17 17:00:00 -- -- -- -- -- -- -- -- --
2019-04-17 16:00:00 -- -- -- -- -- -- -- -- --
2019-04-17 15:00:00 -- -- -- -- -- -- -- -- --
2019-04-17 14:00:00 -- -- -- -- -- -- -- -- --
2019-04-17 13:00:00 18.1 17 Norte 23 Norte 0 1007.1 -1.3 61
2019-04-17 12:00:00 17.4 11 Nordeste 19 Nordeste 0 1007.6 -0.7 63
2019-04-17 11:00:00 16.5 6 Norte 14 Nordeste 0 1008.4 0.1 68
2019-04-17 10:00:00 14.7 8 Nordeste 15 Norte 0 1008.4 0.4 75
2019-04-17 09:00:00 14 6 Norte 10 Norte 0 1008.3 0.3 79
2019-04-17 08:00:00 13.5 5 Norte 10 Norte 0 1008.3 0 82
2019-04-17 07:00:00 13.4 6 Norte 14 Norte 0 1008 -0.9 83
2019-04-17 06:00:00 13.5 9 Nordeste 15 Norte 0 1008 -1.2 84
2019-04-17 05:00:00 13.7 7 Nordeste 14 Norte 0 1008.3 -1.6 84
2019-04-17 04:00:00 13.6 3 Norte 5 Norte 0 1008.9 -1.2 86
2019-04-17 03:00:00 13.6 3 Este 6 Nordeste 0 1009.2 -0.9 85
2019-04-17 02:00:00 13.5 2 Oeste 6 Sudoeste 0 1009.9 0 85
2019-04-17 01:00:00 12.9 3 Oeste 8 Oeste 0 1010.1 1.1 85
2019-04-17 00:00:00 12.7 0 Calma 5 Norte 0 1010.1 1.7 84
2019-04-16 23:00:00 13.1 3 Norte 12 Norte 0 1009.9 2.1 79
2019-04-16 22:00:00 13.9 9 Norte 15 Norte 0 1009 1.4 73
2019-04-16 21:00:00 15.8 8 Nordeste 27 Nordeste 0 1008.4 0.8 59
2019-04-16 20:00:00 17.9 15 Nordeste 28 Nordeste 0 1007.8 0.2 50
2019-04-16 19:00:00 20.3 16 Nordeste 27 Este 0 1007.6 -0.2 43
2019-04-16 18:00:00 21.1 20 Este 32 Este 0 1007.6 -0.6 41
2019-04-16 17:00:00 21.6 21 Este 33 Este 0 1007.6 -1 42
2019-04-16 16:00:00 22.4 12 Nordeste 31 Nordeste 0 1007.8 -1.1 40
2019-04-16 15:00:00 21.7 9 Nordeste 26 Nordeste 0 1008.2 -0.9 44
2019-04-16 14:00:00 20.9 14 Nordeste 29 Nordeste 0 1008.6 -0.1 49
2019-04-16 13:00:00 20.4 14 Norte 31 Norte 0 1008.9 0.7 52
2019-04-16 12:00:00 18.9 11 Nordeste 23 Nordeste 0 1009.1 1.5 55
2019-04-16 11:00:00 17.8 9 Nordeste 26 Norte 0 1008.7 1.9 58
2019-04-16 10:00:00 17.6 9 Norte 17 Norte 0 1008.2 1.8 59
2019-04-16 09:00:00 14.6 5 Sudoeste 12 Nordeste 0 1007.6 1.9 70
2019-04-16 08:00:00 10.3 5 Sudoeste 11 Noroeste 0 1006.8 1.2 90
2019-04-16 07:00:00 11.1 6 Oeste 10 Sudoeste 0 1006.4 1 88
2019-04-16 06:00:00 11.2 3 Sudoeste 9 Oeste 0 1005.7 -0.3 89
2019-04-16 05:00:00 12.3 4 Sudoeste 9 Sudoeste 0 1005.6 -0.5 86
2019-04-16 04:00:00 13.9 3 Sudoeste 8 Oeste 0 1005.4 -0.5 81
2019-04-16 03:00:00 14.4 0 Calma 5 Este 0 1006 0.5 82
2019-04-16 02:00:00 14.6 3 Nordeste 5 Nordeste 0 1006.1 0.9 81
2019-04-16 01:00:00 14.7 4 Este 8 Norte 0 1005.9 0.9 79
2019-04-16 00:00:00 14.9 3 Norte 9 Nordeste 0 1005.5 1.3 79
2019-04-15 23:00:00 15 5 Nordeste 15 Norte 0 1005.2 1.4 77
2019-04-15 22:00:00 15.3 6 Norte 18 Norte 0 1005 1.1 73
2019-04-15 21:00:00 15.9 11 Norte 19 Norte 0 1004.2 0.3 70
2019-04-15 20:00:00 16.8 11 Norte 22 Norte 0 1003.8 -0.1 68
2019-04-15 19:00:00 18 15 Norte 28 Norte 0 1003.9 -0.7 64
2019-04-15 18:00:00 19.8 13 Norte 22 Norte 0 1003.9 -1.5 59
2019-04-15 17:00:00 18.3 12 Nordeste 25 Nordeste 0 1003.9 -2 60
2019-04-15 16:00:00 19.2 12 Nordeste 21 Norte 0 1004.6 -1.6 57
2019-04-15 15:00:00 18.5 11 Norte 24 Norte 0 1005.4 -1.4 58
2019-04-15 14:00:00 18.1 12 Norte 22 Nordeste 0 1005.9 -1.1 61
2019-04-15 13:00:00 17.1 7 Norte 18 Nordeste 0 1006.2 -0.6 66
2019-04-15 12:00:00 15.9 7 Norte 13 Norte 0 1006.8 0.2 73
2019-04-15 11:00:00 15.3 7 Norte 13 Norte 0 1007 0.4 79
2019-04-15 10:00:00 14.9 6 Norte 11 Noroeste 0 1006.8 0.7 81
2019-04-15 09:00:00 14.5 5 Norte 12 Norte 0 1006.6 0.9 84
2019-04-15 08:00:00 13.9 6 Noroeste 13 Noroeste 0 1006.6 1.2 87
2019-04-15 07:00:00 13.3 5 Norte 17 Norte 0 1006.1 1.2 88
2019-04-15 06:00:00 12.5 4 Oeste 7 Oeste 0 1005.7 0.6 84
2019-04-15 05:00:00 12.2 2 Noroeste 7 Nordeste 0 1005.4 0.2 85
2019-04-15 04:00:00 13.3 2 Noroeste 5 Oeste 0 1004.9 -0.2 76
2019-04-15 03:00:00 14.2 5 Oeste 9 Oeste 0 1005.1 0.8 73
2019-04-15 02:00:00 15 5 Oeste 8 Sudoeste 0 1005.2 1.8 71
2019-04-15 01:00:00 16 3 Este 15 Este 0 1005.1 2.3 67
2019-04-15 00:00:00 17.4 13 Este 22 Nordeste 0 1004.3 2.4 61
2019-04-14 23:00:00 20.9 6 Oeste 15 Sudoeste 0 1003.4 2 39
2019-04-14 22:00:00 22.4 8 Sudoeste 15 Sudoeste 0 1002.8 1.4 36
2019-04-14 21:00:00 24.8 7 Sudoeste 18 Oeste 0 1001.9 0.2 28
2019-04-14 20:00:00 27.4 10 Oeste 30 Oeste 0 1001.4 -0.6 23
2019-04-14 19:00:00 29.6 14 Oeste 30 Oeste 0 1001.4 -1.5 20
2019-04-14 18:00:00 29.8 18 Oeste 31 Oeste 0 1001.7 -2 19
2019-04-14 17:00:00 30.1 14 Noroeste 30 Oeste 0 1002 -2.1 18
2019-04-14 16:00:00 29.4 14 Noroeste 36 Oeste 0 1002.9 -1.7 18
2019-04-14 15:00:00 28.9 14 Oeste 41 Oeste 0 1003.7 -1.7 17
2019-04-14 14:00:00 28.2 14 Oeste 28 Oeste 0 1004.1 -1.6 17
2019-04-14 13:00:00 27.3 12 Noroeste 26 Noroeste 0 1004.6 -1.2 18
2019-04-14 12:00:00 25.2 5 Oeste 17 Noroeste 0 1005.4 -0.5 23
2019-04-14 11:00:00 22.7 9 Sudoeste 24 Oeste 0 1005.7 -0.1 29
2019-04-14 10:00:00 17.8 6 Nordeste 9 Nordeste 0 1005.8 0.3 47
2019-04-14 09:00:00 11.9 3 Nordeste 6 Oeste 0 1005.9 0.3 57
2019-04-14 08:00:00 7.4 4 Oeste 18 Oeste 0 1005.8 0.1 71
2019-04-14 07:00:00 6.8 5 Oeste 9 Oeste 0 1005.5 -0.4 72
2019-04-14 06:00:00 6.6 3 Norte 8 Oeste 0 1005.6 -0.6 73
2019-04-14 05:00:00 7.8 2 Sur 6 Oeste 0 1005.7 -1.2 68
2019-04-14 04:00:00 8.5 0 Calma 7 Oeste 0 1005.9 -1.2 61
2019-04-14 03:00:00 8.6 6 Oeste 10 Oeste 0 1006.2 -0.9 65
2019-04-14 02:00:00 9.8 6 Sudoeste 13 Sudoeste 0 1006.9 0 66
2019-04-14 01:00:00 10.4 5 Sudoeste 9 Oeste 0 1007.1 1 65
2019-04-14 00:00:00 12.2 6 Oeste 9 Sudeste 0 1007.1 1.9 58
2019-04-13 23:00:00 14.5 6 Sudeste 9 Sudeste 0 1006.9 1.8 51
2019-04-13 22:00:00 16.3 3 Sur 13 Oeste 0 1006.1 1.2 42
2019-04-13 21:00:00 19.7 5 Sur 15 Sur 0 1005.2 0.3 28
2019-04-13 20:00:00 21.9 6 Sur 17 Sudeste 0 1005.1 -0.1 26
2019-04-13 19:00:00 22.8 12 Este 20 Nordeste 0 1004.9 -0.7 15
2019-04-13 18:00:00 24 13 Este 23 Nordeste 0 1004.9 -1.1 21
2019-04-13 17:00:00 24.1 12 Nordeste 22 Nordeste 0 1005.2 -1.5 17
2019-04-13 16:00:00 23.9 10 Norte 25 Nordeste 0 1005.6 -1.7 17
2019-04-13 15:00:00 23.3 10 Nordeste 28 Nordeste 0 1006 -1.6 18
2019-04-13 14:00:00 22 13 Nordeste 22 Nordeste 0 1006.7 -1.1 21
2019-04-13 13:00:00 21.2 10 Nordeste 21 Este 0 1007.3 -0.4 27
2019-04-13 12:00:00 20.4 6 Este 13 Este 0 1007.6 0 27
2019-04-13 11:00:00 18.4 3 Sudeste 10 Sur 0 1007.8 0.9 31
2019-04-13 10:00:00 14.6 5 Sudoeste 12 Oeste 0 1007.7 1.3 43
2019-04-13 09:00:00 11 8 Sudoeste 15 Sudoeste 0 1007.6 1.4 53
2019-04-13 08:00:00 7.7 4 Sudoeste 11 Sur 0 1006.9 0.8 67
2019-04-13 07:00:00 6.9 5 Oeste 16 Sudoeste 0 1006.4 0.1 73
2019-04-13 06:00:00 9.5 10 Sudoeste 18 Sudoeste 0 1006.2 -0.4 59
2019-04-13 05:00:00 8.5 7 Oeste 17 Oeste 0 1006.1 -1 68
2019-04-13 04:00:00 9.1 7 Oeste 17 Oeste 0 1006.3 -0.5 70
2019-04-13 03:00:00 9 5 Sudoeste 12 Oeste 0 1006.6 0.5 74
2019-04-13 02:00:00 10 7 Oeste 10 Oeste 0 1007.1 1.5 72
2019-04-13 01:00:00 10.9 5 Oeste 8 Oeste 0 1006.8 1.8 71
2019-04-13 00:00:00 12.3 4 Este 10 Norte 0 1006.1 2.2 65
2019-04-12 23:00:00 13.8 3 Sur 10 Oeste 0 1005.6 1.8 58
2019-04-12 22:00:00 16.4 5 Sur 13 Noroeste 0 1005 1.5 44
2019-04-12 21:00:00 17.3 6 Sudeste 23 Sudeste 0 1003.9 0.4 42
2019-04-12 20:00:00 19.9 12 Sudeste 22 Sudeste 0 1003.8 0.2 31
2019-04-12 19:00:00 22 7 Este 22 Sudeste 0 1003.5 -0.8 26
2019-04-12 18:00:00 22.6 13 Sudeste 28 Este 0 1003.5 -1.4 25
2019-04-12 17:00:00 23 3 Nordeste 23 Nordeste 0 1003.6 -1.9 22
2019-04-12 16:00:00 22.5 6 Norte 15 Norte 0 1004.3 -1.6 21
2019-04-12 15:00:00 20.7 8 Nordeste 19 Nordeste 0 1004.9 -1.5 24
2019-04-12 14:00:00 20.3 4 Sudeste 15 Sur 0 1005.5 -1 26
2019-04-12 13:00:00 19.3 5 Sudeste 15 Este 0 1005.9 -0.4 27
2019-04-12 12:00:00 17.6 3 Noroeste 79 Noroeste 0 1006.4 0 29
2019-04-12 11:00:00 15.8 6 Oeste 14 Oeste 0 1006.5 0.6 35
2019-04-12 10:00:00 14.1 7 Oeste 17 Sudoeste 0 1006.3 0.9 39
2019-04-12 09:00:00 11.3 8 Sudoeste 19 Sudoeste 0 1006.4 1.2 52
2019-04-12 08:00:00 7.8 8 Oeste 14 Sudoeste 0 1005.9 0.6 64
2019-04-12 07:00:00 8.5 9 Oeste 15 Sudoeste 0 1005.4 0 61
2019-04-12 06:00:00 7.6 6 Oeste 9 Oeste 0 1005.2 -0.5 68
2019-04-12 05:00:00 8.3 4 Sudoeste 12 Oeste 0 1005.3 -0.9 65
2019-04-12 04:00:00 8.8 9 Oeste 12 Oeste 0 1005.4 -0.7 65
2019-04-12 03:00:00 10.5 8 Sudoeste 19 Oeste 0 1005.7 -0.1 58
2019-04-12 02:00:00 9.8 8 Oeste 14 Oeste 0 1006.2 0.8 72
2019-04-12 01:00:00 11.1 7 Oeste 10 Oeste 0 1006.1 1.3 75
2019-04-12 00:00:00 12 5 Nordeste 10 Norte 0 1005.8 2.3 74
2019-04-11 23:00:00 14 5 Este 22 Noroeste 0 1005.4 2.8 68
2019-04-11 22:00:00 15.1 11 Noroeste 21 Noroeste 0 1004.8 2.6 64
2019-04-11 21:00:00 16.8 8 Noroeste 12 Norte 0 1003.5 1.5 38
2019-04-11 20:00:00 19.4 8 Norte 20 Norte 0 1002.6 0.4 33
2019-04-11 19:00:00 21.4 5 Norte 21 Norte 0 1002.2 -0.7 24
2019-04-11 18:00:00 23.7 14 Norte 28 Oeste 0 1002 -1.6 21
2019-04-11 17:00:00 21.9 6 Norte 16 Noroeste 0 1002.2 -1.8 21
2019-04-11 16:00:00 22.2 8 Norte 19 Noroeste 0 1002.9 -1.9 24
2019-04-11 15:00:00 21.6 5 Norte 18 Noroeste 0 1003.6 -1.5 24
2019-04-11 14:00:00 21 7 Sudeste 18 Sudeste 0 1004 -1.3 26
2019-04-11 13:00:00 19.8 3 Noroeste 17 Sudeste 0 1004.8 -0.6 29
2019-04-11 12:00:00 18 7 Sudoeste 16 Sudoeste 0 1005.1 -0.1 31
2019-04-11 11:00:00 16.5 5 Sur 14 Oeste 0 1005.3 0.6 38
2019-04-11 10:00:00 13.5 8 Sudoeste 14 Sudoeste 0 1005.4 1.2 45
2019-04-11 09:00:00 10 6 Sudoeste 18 Sudoeste 0 1005.2 0.9 62
2019-04-11 08:00:00 7.7 10 Sudoeste 14 Sudoeste 0 1004.7 0.6 70
2019-04-11 07:00:00 6.7 4 Noroeste 14 Sudoeste 0 1004.2 0.3 75
2019-04-11 06:00:00 7.4 5 Oeste 13 Sudoeste 0 1004.3 0.4 73
2019-04-11 05:00:00 8.5 7 Sudoeste 12 Sudoeste 0 1004.1 -0.1 68
2019-04-11 04:00:00 8.2 8 Oeste 13 Sudoeste 0 1003.9 -0.2 70
2019-04-11 03:00:00 9.8 9 Sudoeste 15 Sudoeste 0 1003.9 0.2 62
2019-04-11 02:00:00 10.7 9 Sudoeste 16 Oeste 0 1004.2 0.9 57
2019-04-11 01:00:00 10.8 9 Oeste 18 Oeste 0 1004.1 1.5 57
2019-04-11 00:00:00 11.8 10 Oeste 16 Oeste 0 1003.7 2 53
2019-04-10 23:00:00 12.1 8 Oeste 16 Sudoeste 0 1003.3 2.4 52
2019-04-10 22:00:00 14.3 11 Sudoeste 19 Sudoeste 0 1002.6 1.9 40
2019-04-10 21:00:00 15.5 9 Oeste 21 Oeste 0 1001.7 1.7 38
2019-04-10 20:00:00 17.3 5 Nordeste 36 Noroeste 0 1000.9 0.8 33
2019-04-10 19:00:00 17.8 15 Noroeste 49 Noroeste 0 1000.7 0.5 31
2019-04-10 18:00:00 19 19 Oeste 44 Oeste 0 1000 -0.8 27
2019-04-10 17:00:00 19.4 19 Oeste 51 Oeste 0 1000.1 -0.7 26
2019-04-10 16:00:00 20.1 19 Oeste 41 Oeste 0 1000.2 -1.5 25
2019-04-10 15:00:00 19.8 26 Oeste 47 Oeste 0 1000.8 -1.2 29
2019-04-10 14:00:00 19.8 17 Oeste 45 Oeste 0 1000.8 -1.6 31
2019-04-10 13:00:00 18.3 19 Oeste 43 Oeste 0 1001.7 -0.5 35
2019-04-10 12:00:00 17.2 22 Oeste 44 Oeste 0 1002 -0.4 39
2019-04-10 11:00:00 15.4 22 Oeste 47 Oeste 0 1002.4 0.8 44
2019-04-10 10:00:00 14.6 19 Oeste 41 Oeste 0 1002.2 0.5 48
2019-04-10 09:00:00 13.2 16 Oeste 34 Oeste 0 1002.4 1.1 55
2019-04-10 08:00:00 11.2 19 Oeste 30 Oeste 0 1001.6 0.1 62
2019-04-10 07:00:00 11.3 6 Oeste 27 Oeste 0 1001.7 0.1 59
2019-04-10 06:00:00 11.4 11 Oeste 25 Oeste 0 1001.3 -0.7 60
2019-04-10 05:00:00 10.6 9 Sudoeste 28 Oeste 0 1001.5 -0.8 65
2019-04-10 04:00:00 11 18 Sudoeste 30 Sudoeste 0 1001.6 -0.4 64
2019-04-10 03:00:00 10.7 13 Sudoeste 22 Sudoeste 0 1002 -0.3 66
2019-04-10 02:00:00 12 12 Oeste 27 Sudoeste 0 1002.3 -0.4 58
2019-04-10 01:00:00 13.2 17 Sudoeste 26 Sudoeste 0 1002 -0.5 49
2019-04-10 00:00:00 12.1 9 Sudoeste 19 Sudoeste 0 1002.3 0.7 55
2019-04-09 23:00:00 12.6 7 Sudoeste 17 Sur 0 1002.7 1.5 55
2019-04-09 22:00:00 12 6 Sudoeste 36 Oeste 0.2 1002.5 0.9 64
2019-04-09 21:00:00 13.6 17 Oeste 42 Oeste 0 1001.6 1.4 59
2019-04-09 20:00:00 14.5 9 Sudoeste 23 Oeste 0 1001.2 0.3 61
2019-04-09 19:00:00 13.4 11 Sudoeste 59 Oeste 1 1001.6 0.8 70
2019-04-09 18:00:00 19.3 6 Noroeste 35 Oeste 0 1000.2 -1.3 34
2019-04-09 17:00:00 17.3 20 Oeste 57 Oeste 0 1000.9 -1.1 39
2019-04-09 16:00:00 21.1 23 Oeste 57 Oeste 0 1000.8 -1.8 26
2019-04-09 15:00:00 20.1 28 Oeste 61 Oeste 0 1001.5 -1.7 27
2019-04-09 14:00:00 19.5 28 Oeste 59 Oeste 0 1002 -1.5 29
2019-04-09 13:00:00 18.3 28 Oeste 62 Oeste 0 1002.6 -1 31
2019-04-09 12:00:00 17.4 29 Oeste 51 Oeste 0 1003.2 -0.3 35
2019-04-09 11:00:00 16.3 22 Oeste 47 Oeste 0 1003.5 0.3 41
2019-04-09 10:00:00 15.3 17 Oeste 37 Oeste 0 1003.6 1.3 46
2019-04-09 09:00:00 14 16 Oeste 31 Oeste 0 1003.5 1.4 52
2019-04-09 08:00:00 11.4 6 Sur 18 Sudoeste 0 1003.2 1.4 59
2019-04-09 07:00:00 11.7 13 Sudoeste 21 Sudoeste 0 1002.3 0.6 59
2019-04-09 06:00:00 12.8 9 Sudoeste 29 Sudoeste 0 1002.1 0.3 55
2019-04-09 05:00:00 14.5 14 Sudoeste 30 Sudoeste 0 1001.8 0.1 48
2019-04-09 04:00:00 14.7 13 Sudoeste 27 Oeste 0 1001.7 0.4 54
2019-04-09 03:00:00 15.8 12 Sudoeste 27 Sudoeste 0 1001.8 0.5 49
2019-04-09 02:00:00 15.6 16 Sudoeste 27 Sudoeste 0 1001.7 0.3 49
2019-04-09 01:00:00 16.3 17 Sudoeste 31 Sudoeste 0 1001.3 0.1 50
2019-04-09 00:00:00 15.4 13 Oeste 26 Oeste 0 1001.3 0.5 59
2019-04-08 23:00:00 16.3 12 Sudoeste 32 Sudoeste 0 1001.4 0.7 55
2019-04-08 22:00:00 17.4 16 Sudoeste 31 Sudoeste 0 1001.2 0.7 48
2019-04-08 21:00:00 17.8 11 Oeste 26 Oeste 0 1000.8 0.4 42
2019-04-08 20:00:00 19.8 13 Oeste 34 Oeste 0 1000.7 0.3 42
2019-04-08 19:00:00 21.2 18 Sudoeste 44 Oeste 0 1000.5 -0.4 36
2019-04-08 18:00:00 21.3 23 Oeste 49 Oeste 0 1000.4 -1.4 33
2019-04-08 17:00:00 22.2 6 Sudoeste 19 Oeste 0 1000.4 -1.8 34
2019-04-08 16:00:00 21.6 10 Oeste 36 Oeste 0 1000.9 -1.4 37
2019-04-08 15:00:00 21.3 17 Oeste 39 Oeste 0 1001.8 -1.1 36
2019-04-08 14:00:00 20.6 18 Noroeste 45 Oeste 0 1002.2 -0.8 39
2019-04-08 13:00:00 20.5 15 Oeste 30 Oeste 0 1002.3 -0.7 38
2019-04-08 12:00:00 18.2 12 Oeste 27 Sudoeste 0 1002.9 -0.1 48
2019-04-08 11:00:00 16 13 Sudoeste 30 Sudoeste 0 1003 0.4 55
2019-04-08 10:00:00 15 15 Sudoeste 30 Sudoeste 0 1003 0.6 57
2019-04-08 09:00:00 14.8 14 Sudoeste 27 Sudoeste 0 1003 0.4 56
2019-04-08 08:00:00 14.1 14 Sudoeste 27 Sudoeste 0 1002.6 -0.4 58
2019-04-08 07:00:00 13.7 13 Sudoeste 37 Sudoeste 0 1002.4 -0.6 59
2019-04-08 06:00:00 14.2 17 Sudoeste 30 Sudoeste 0 1002.6 -1.1 57
2019-04-08 05:00:00 13.4 7 Oeste 16 Oeste 0 1003 -1.1 60
2019-04-08 04:00:00 14.1 6 Sudoeste 15 Sudoeste 0 1003 -1.3 55
2019-04-08 03:00:00 14 4 Oeste 18 Oeste 0 1003.7 -0.2 55
2019-04-08 02:00:00 14.7 9 Oeste 20 Oeste 0 1004.1 0.1 49
2019-04-08 01:00:00 15 9 Oeste 20 Sudoeste 0 1004.3 0.9 45
2019-04-08 00:00:00 15.2 10 Oeste 24 Oeste 0 1003.9 1.2 45
2019-04-07 23:00:00 15.6 12 Oeste 22 Oeste 0 1004 2.2 43
2019-04-07 22:00:00 16.1 10 Oeste 19 Oeste 0 1003.4 2.4 39
2019-04-07 21:00:00 16.7 10 Oeste 24 Oeste 0 1002.7 2 36
2019-04-07 20:00:00 17.5 12 Oeste 37 Noroeste 0 1001.8 1.3 27
2019-04-07 19:00:00 18.3 21 Oeste 37 Oeste 0 1001 0.7 25
2019-04-07 18:00:00 19.6 21 Oeste 44 Oeste 0 1000.7 0.5 23
2019-04-07 17:00:00 20.9 21 Oeste 41 Oeste 0 1000.5 0.2 22
2019-04-07 16:00:00 18.7 23 Noroeste 50 Oeste 0 1000.3 -0.2 26
2019-04-07 15:00:00 19 21 Oeste 49 Oeste 0 1000.2 -0.2 27
2019-04-07 14:00:00 17.5 22 Noroeste 41 Noroeste 0 1000.3 0.4 30
2019-04-07 13:00:00 16.7 20 Oeste 48 Oeste 0 1000.5 1.3 34
2019-04-07 12:00:00 15.8 23 Oeste 43 Oeste 0 1000.4 2 37
2019-04-07 11:00:00 13.7 16 Oeste 32 Oeste 0 999.9 2 42
2019-04-07 10:00:00 13.2 13 Oeste 24 Oeste 0 999.2 2.1 48
2019-04-07 09:00:00 11.7 9 Sudoeste 29 Oeste 0 998.4 1.7 52
2019-04-07 08:00:00 10.7 20 Oeste 43 Oeste 0 997.9 1.3 53
2019-04-07 07:00:00 10.2 7 Oeste 37 Oeste 0 997.1 0.8 57
2019-04-07 06:00:00 9.5 9 Sudoeste 21 Oeste 0 996.7 1 58
2019-04-07 05:00:00 9.8 8 Sur 19 Sur 0 996.6 0.8 56
2019-04-07 04:00:00 9.8 7 Sudoeste 35 Oeste 0 996.3 -0.2 56
2019-04-07 03:00:00 10.6 17 Oeste 37 Oeste 0 995.7 -0.7 53
2019-04-07 02:00:00 9.4 13 Oeste 26 Oeste 0 995.8 -0.3 59
2019-04-07 01:00:00 10.1 8 Sudoeste 19 Sudoeste 0 996.5 1 56
2019-04-07 00:00:00 11.4 11 Sur 20 Sudeste 0 996.4 1.2 50
2019-04-06 23:00:00 11.9 12 Sudoeste 33 Sudoeste 0 996.1 1.9 50
2019-04-06 22:00:00 11.7 8 Oeste 38 Oeste 0 995.5 1.9 47
2019-04-06 21:00:00 12.4 10 Oeste 39 Oeste 0 995.2 1.3 54
2019-04-06 20:00:00 14.4 14 Sudoeste 41 Sudoeste 0 994.2 0.2 42
2019-04-06 19:00:00 15.6 17 Oeste 33 Sudoeste 0 993.6 -0.1 38
2019-04-06 18:00:00 13.8 21 Sudoeste 50 Oeste 0 993.9 -0.6 44
2019-04-06 17:00:00 12.9 23 Oeste 50 Sudoeste 0 994 -0.2 50
2019-04-06 16:00:00 14.2 6 Nordeste 40 Noroeste 0.6 993.7 -0.9 56
2019-04-06 15:00:00 14.6 14 Noroeste 37 Oeste 0 994.5 -0.5 49
2019-04-06 14:00:00 15.9 6 Oeste 28 Oeste 0 994.2 -0.8 39
2019-04-06 13:00:00 16 13 Oeste 43 Oeste 0 994.6 -0.3 40
2019-04-06 12:00:00 13.7 15 Sudoeste 44 Oeste 0 995 0.1 39
2019-04-06 11:00:00 13.7 15 Oeste 33 Oeste 0 995 1.1 41
2019-04-06 10:00:00 13.1 14 Oeste 28 Oeste 0 994.9 2 43
2019-04-06 09:00:00 11 8 Noroeste 22 Oeste 0 994.9 2.3 58
2019-04-06 08:00:00 9.1 10 Oeste 27 Sudoeste 0 993.9 1.4 60
2019-04-06 07:00:00 9.1 15 Sudoeste 24 Sudoeste 0 992.9 0.6 63
2019-04-06 06:00:00 8.8 10 Sudoeste 26 Sudoeste 0 992.6 0.5 64
2019-04-06 05:00:00 9.1 15 Sudoeste 30 Oeste 0 992.5 0.5 60
2019-04-06 04:00:00 7.4 7 Oeste 18 Oeste 0 992.3 0.3 70
2019-04-06 03:00:00 9.3 10 Oeste 33 Sudoeste 0 992.1 -0.1 58
2019-04-06 02:00:00 10.5 12 Sudoeste 30 Sudoeste 0 992 0.3 50
2019-04-06 01:00:00 9.4 16 Sudoeste 31 Sudoeste 0 992 0.9 64
2019-04-06 00:00:00 9.8 13 Sudoeste 34 Sudoeste 0 992.2 2 64
2019-04-05 23:00:00 9.9 17 Sudoeste 32 Oeste 0 991.7 1.8 66
2019-04-05 22:00:00 10.7 10 Sudoeste 29 Sudoeste 0 991.1 1.6 72
2019-04-05 21:00:00 10.5 0 Calma 14 Oeste 0 990.2 0.8 82
2019-04-05 20:00:00 10.6 11 Oeste 17 Oeste 0 989.9 -0.1 87
2019-04-05 19:00:00 10.8 3 Nordeste 24 Este 0.2 989.5 -0.3 83
2019-04-05 18:00:00 10.5 10 Sudeste 48 Sudoeste 5 989.4 0.8 87
2019-04-05 17:00:00 11.5 13 Oeste 36 Oeste 1.2 990 0.4 82
2019-04-05 16:00:00 12.8 27 Noroeste 51 Noroeste 0.2 989.8 -0.6 71
2019-04-05 15:00:00 20.7 5 Sur 31 Oeste 0 988.6 -2.7 24
2019-04-05 14:00:00 20.8 13 Sudoeste 34 Oeste 0 989.6 -1.9 24
2019-04-05 13:00:00 19.8 14 Sudoeste 31 Sudoeste 0 990.4 -1.5 28
2019-04-05 12:00:00 18.8 9 Sudoeste 25 Sudoeste 0 991.3 -0.7 33
2019-04-05 11:00:00 16.7 12 Sudoeste 28 Sudoeste 0 991.5 -0.4 37
2019-04-05 10:00:00 14.4 11 Sudoeste 22 Sudoeste 0 991.9 0.2 52
2019-04-05 09:00:00 11.4 8 Sur 15 Sudoeste 0 992 0.3 72
2019-04-05 08:00:00 9.4 4 Nordeste 28 Sudoeste 0 991.9 0 80
2019-04-05 07:00:00 11.1 17 Sudoeste 28 Sudoeste 0 991.7 -0.5 71
2019-04-05 06:00:00 8 2 Sur 9 Sudoeste 0 991.7 -0.9 82
2019-04-05 05:00:00 8.6 3 Sudoeste 12 Sudoeste 0 991.9 -0.9 81
2019-04-05 04:00:00 7.8 3 Noroeste 5 Noroeste 0 992.2 -0.8 84
2019-04-05 03:00:00 8.6 2 Nordeste 6 Noroeste 0 992.6 -0.3 81
2019-04-05 02:00:00 9.9 3 Oeste 10 Noroeste 0 992.8 -0.1 73
2019-04-05 01:00:00 10.2 4 Oeste 10 Sudoeste 0 993 0.4 70
2019-04-05 00:00:00 11.9 8 Sudoeste 14 Oeste 0 992.9 1.3 60
2019-04-04 23:00:00 13.5 8 Sudoeste 20 Sur 0 992.9 1.8 53
2019-04-04 22:00:00 14.2 10 Sudoeste 30 Sudoeste 0 992.6 1.6 49
2019-04-04 21:00:00 15.6 14 Sur 35 Sur 0 991.6 0.6 43
2019-04-04 20:00:00 17.1 14 Sudeste 26 Sudeste 0 991.1 -0.2 41
2019-04-04 19:00:00 18.6 16 Este 30 Sudeste 0 991 -1.1 35
2019-04-04 18:00:00 20.1 16 Sudeste 29 Sudeste 0 991 -2.1 31
2019-04-04 17:00:00 20.8 9 Norte 66 Este 0 991.3 -2.5 19
2019-04-04 16:00:00 20.1 8 Norte 26 Este 0 992.1 -2.4 22
2019-04-04 15:00:00 19.3 7 Este 18 Oeste 0 993.1 -1.9 23
2019-04-04 14:00:00 18.5 8 Sur 19 Oeste 0 993.8 -1.1 23
2019-04-04 13:00:00 17.4 5 Sudeste 18 Sudeste -- 994.5 0 26
2019-04-04 12:00:00 16.4 8 Sudeste 17 Sudeste -- 995 0.7 25
2019-04-04 11:00:00 14.9 8 Norte 17 Norte -- 994.9 1.2 29
2019-04-04 10:00:00 13 4 Sudoeste 11 Oeste -- 994.5 1.2 59
2019-04-04 09:00:00 10.2 6 Oeste 11 Oeste -- 994.3 1.5 78
2019-04-04 08:00:00 8.5 5 Oeste 10 Oeste -- 993.7 1.1 80
2019-04-04 07:00:00 10.3 5 Sudoeste 10 Sudoeste -- 993.3 0.6 72
2019-04-04 06:00:00 11 6 Oeste 9 Oeste -- 992.8 -0.2 70
2019-04-04 05:00:00 11.3 4 Norte 15 Este -- 992.6 -0.5 67
2019-04-04 04:00:00 11.6 10 Este 28 Este -- 992.7 -0.7 63
2019-04-04 03:00:00 11.7 15 Nordeste 28 Nordeste -- 993 -0.4 64
2019-04-04 02:00:00 11.8 9 Nordeste 21 Nordeste -- 993.1 0 78
2019-04-04 01:00:00 11.7 7 Nordeste 14 Este -- 993.4 2 82
2019-04-04 00:00:00 12.3 7 Este 14 Nordeste -- 993.4 3.5 79
2019-04-03 23:00:00 12.9 10 Nordeste 38 Norte -- 993.1 4.4 77
2019-04-03 22:00:00 13.6 19 Norte 39 Nordeste -- 991.4 2.9 79
2019-04-03 21:00:00 16.8 22 Norte 41 Norte -- 989.9 0.9 64
2019-04-03 20:00:00 22.2 12 Oeste 35 Oeste -- 988.7 -1.2 29
2019-04-03 19:00:00 24 20 Oeste 39 Oeste -- 988.5 -2.5 27
2019-04-03 18:00:00 23.8 15 Oeste 34 Oeste -- 989 -3.3 26
2019-04-03 17:00:00 24.3 21 Sudoeste 39 Sudoeste -- 989.9 -3.4 23
2019-04-03 16:00:00 24.9 17 Sudoeste 43 Oeste -- 991 -3.5 24
2019-04-03 15:00:00 22.9 18 Oeste 40 Oeste -- 992.3 -3.6 28
2019-04-03 14:00:00 23.7 20 Oeste 41 Oeste -- 993.3 -3.6 25
2019-04-03 13:00:00 22.8 20 Oeste 49 Oeste -- 994.5 -3.1 27
2019-04-03 12:00:00 22.2 12 Oeste 23 Sudoeste -- 995.9 -2.2 37
2019-04-03 11:00:00 19.7 14 Sudoeste 32 Sudoeste -- 996.9 -1.2 39
2019-04-03 10:00:00 16.8 10 Sudoeste 26 Sudoeste -- 997.6 -0.6 53
2019-04-03 09:00:00 14.3 13 Sudoeste 26 Sudoeste -- 998.1 -0.4 63
2019-04-03 08:00:00 13.5 14 Sudoeste 28 Sudoeste -- 998.1 -1.2 66
2019-04-03 07:00:00 13.6 14 Sudoeste 28 Sudoeste -- 998.2 -1.9 66
2019-04-03 06:00:00 13.5 16 Sudoeste 31 Sudoeste -- 998.5 -2.3 68
2019-04-03 05:00:00 12.7 14 Sudoeste 23 Sudoeste -- 999.3 -2.3 75
2019-04-03 04:00:00 10 6 Oeste 14 Oeste -- 1000.1 -2.1 86
2019-04-03 03:00:00 10.1 3 Norte 14 Oeste -- 1000.8 -1.8 86
2019-04-03 02:00:00 10.7 9 Oeste 16 Oeste -- 1001.6 -0.9 87
2019-04-03 01:00:00 11.5 5 Oeste 12 Sudoeste -- 1002.2 -0.4 84
2019-04-03 00:00:00 13.1 8 Sudoeste 13 Oeste -- 1002.6 -0.1 79
2019-04-02 23:00:00 13.1 2 Noroeste 15 Sur -- 1002.5 0.2 79
2019-04-02 22:00:00 14.1 4 Sudoeste 10 Oeste -- 1002.6 0.2 71
2019-04-02 21:00:00 14.6 7 Oeste 18 Sur -- 1002.7 0.6 70
2019-04-02 20:00:00 16.5 5 Sudoeste 15 Nordeste -- 1002.3 0.8 55
2019-04-02 19:00:00 16.6 13 Nordeste 47 Norte -- 1002.4 0.2 62
2019-04-02 18:00:00 18 34 Norte 56 Norte -- 1002.1 -0.8 54
2019-04-02 17:00:00 23.2 6 Sudoeste 16 Sudoeste -- 1001.5 -2.2 30
2019-04-02 16:00:00 20.7 11 Sudoeste 21 Oeste -- 1002.2 -2.4 41
2019-04-02 15:00:00 21.2 9 Oeste 22 Norte -- 1002.9 -2.1 40
2019-04-02 14:00:00 21.8 13 Noroeste 27 Noroeste -- 1003.7 -1.4 41
2019-04-02 13:00:00 20.2 9 Sudoeste 27 Sudoeste -- 1004.6 -0.5 49
2019-04-02 12:00:00 19.1 7 Sudoeste 17 Oeste -- 1005 0 56
2019-04-02 11:00:00 16.8 4 Nordeste 8 Nordeste -- 1005.1 0.6 74
2019-04-02 10:00:00 13.1 0 Calma 9 Sur -- 1005.1 0.4 88
2019-04-02 09:00:00 9.5 4 Norte 10 Norte -- 1005 0.2 96
2019-04-02 08:00:00 8 6 Oeste 9 Oeste -- 1004.5 -0.3 95
2019-04-02 07:00:00 8.4 0 Calma 10 Sudoeste -- 1004.7 -0.5 95
2019-04-02 06:00:00 8.4 6 Sudoeste 9 Oeste -- 1004.8 -0.9 95
2019-04-02 05:00:00 9 6 Sudoeste 11 Sudoeste -- 1004.8 -1.4 95
2019-04-02 04:00:00 8.9 5 Oeste 8 Oeste -- 1005.2 -1 95
2019-04-02 03:00:00 9.6 2 Oeste 8 Oeste -- 1005.7 -0.5 95
2019-04-02 02:00:00 10.3 5 Sudoeste 9 Oeste -- 1006.2 0 94
2019-04-02 01:00:00 11.5 4 Sudoeste 7 Sudoeste -- 1006.2 -0.1 93
2019-04-02 00:00:00 11.7 4 Oeste 6 Oeste -- 1006.2 0.5 92
2019-04-01 23:00:00 12.9 3 Sur 5 Sur -- 1006.2 1.1 88
2019-04-01 22:00:00 13.2 2 Sudoeste 5 Sudoeste -- 1006.3 1.5 89
2019-04-01 21:00:00 13.5 0 Calma 5 Sudoeste -- 1005.7 0.9 88
2019-04-01 20:00:00 13.8 0 Calma 4 Este -- 1005.1 0.2 85
2019-04-01 19:00:00 14.1 3 Este 9 Sudeste -- 1004.8 -0.5 80
2019-04-01 18:00:00 14.5 3 Este 6 Nordeste -- 1004.8 -0.8 78
2019-04-01 17:00:00 14.1 4 Oeste 9 Oeste -- 1004.9 -1 80
2019-04-01 16:00:00 13.3 4 Oeste 11 Oeste -- 1005.3 -0.6 88
2019-04-01 15:00:00 12.7 6 Oeste 11 Oeste -- 1005.6 0 94
2019-04-01 14:00:00 12.1 5 Oeste 12 Oeste -- 1005.9 0.8 95
2019-04-01 13:00:00 11.9 9 Norte 17 Norte -- 1005.9 1.6 96
2019-04-01 12:00:00 12 6 Norte 18 Norte -- 1005.6 1.8 96
2019-04-01 11:00:00 12.2 4 Oeste 6 Oeste -- 1005.1 1.8 96
2019-04-01 10:00:00 11.8 2 Sudoeste 9 Noroeste -- 1004.3 1.5 96
2019-04-01 09:00:00 11.5 2 Noroeste 12 Oeste -- 1003.8 1 96
2019-04-01 08:00:00 11.4 6 Oeste 10 Oeste -- 1003.3 0.6 96
2019-04-01 07:00:00 11.3 6 Sudoeste 9 Oeste -- 1002.8 -0.1 96
2019-04-01 06:00:00 11.2 4 Oeste 8 Sudoeste -- 1002.8 -0.2 96
2019-04-01 05:00:00 11.2 0 Calma 6 Este -- 1002.7 -0.5 96
2019-04-01 04:00:00 11.1 4 Norte 11 Norte -- 1002.9 -0.3 96
2019-04-01 03:00:00 11 6 Norte 16 Nordeste -- 1003 -0.1 96
2019-04-01 02:00:00 10.9 7 Norte 22 Norte -- 1003.2 0.4 96
2019-04-01 01:00:00 11.2 9 Norte 20 Nordeste -- 1003.2 0.9 96
2019-04-01 00:00:00 11.5 12 Norte 32 Norte -- 1003.1 1.2 97
2019-03-31 23:00:00 11.9 19 Norte 34 Norte -- 1002.8 1 97
2019-03-31 22:00:00 12.1 18 Norte 30 Norte -- 1002.3 0.2 96
2019-03-31 21:00:00 12.2 15 Nordeste 31 Nordeste -- 1001.9 -0.2 96
2019-03-31 20:00:00 12.3 12 Norte 25 Norte -- 1001.8 -0.6 96
2019-03-31 19:00:00 12.4 10 Norte 17 Norte -- 1002.1 -0.9 95
2019-03-31 18:00:00 12.6 4 Norte 8 Norte -- 1002.1 -1.5 95
2019-03-31 17:00:00 12.2 3 Sudoeste 6 Oeste -- 1002.4 -1.8 95
2019-03-31 16:00:00 11.6 3 Norte 13 Norte -- 1003 -1.9 95
2019-03-31 15:00:00 11.4 4 Oeste 12 Norte -- 1003.6 -1.5 95
2019-03-31 14:00:00 11.2 8 Norte 13 Norte -- 1004.2 -0.9 95
2019-03-31 13:00:00 10.7 7 Nordeste 17 Norte -- 1004.9 -0.2 94
2019-03-31 12:00:00 10.4 7 Norte 14 Norte -- 1005.1 -0.3 95
2019-03-31 11:00:00 10.1 5 Noroeste 8 Noroeste -- 1005.1 -0.6 95
2019-03-31 10:00:00 10 3 Norte 9 Sur -- 1005.1 -0.5 94
2019-03-31 09:00:00 9.8 5 Oeste 10 Sudoeste -- 1005.4 -1 94
2019-03-31 08:00:00 9.7 3 Oeste 9 Sur -- 1005.7 -1.7 92
2019-03-31 07:00:00 9.6 4 Sur 8 Sudoeste -- 1005.6 -2.4 90
2019-03-31 06:00:00 9.1 2 Oeste 10 Norte -- 1006.4 -1.9 85
2019-03-31 05:00:00 9.3 4 Nordeste 9 Oeste 0 1007.4 -1.3 83
2019-03-31 03:00:00 8.6 6 Sudoeste 10 Sudoeste 0 1008.3 -1.2 83
2019-03-31 01:00:00 8.9 5 Sudoeste 8 Sudoeste 0 1008.7 -1.7 82
2019-03-31 00:00:00 9.4 5 Sudoeste 8 Sudeste 0 1009.2 -1 81
2019-03-30 23:00:00 9.4 5 Sudeste 9 Sudoeste 0 1009.5 -0.3 80
2019-03-30 22:00:00 10.4 3 Norte 7 Oeste 0 1010.4 0.9 74
2019-03-30 21:00:00 11.2 2 Este 8 Nordeste 0 1010.2 1.2 71
2019-03-30 20:00:00 12.1 5 Nordeste 10 Este 0 1009.8 0.9 65
2019-03-30 19:00:00 13.6 10 Nordeste 18 Nordeste 0 1009.5 0 58
2019-03-30 18:00:00 14.6 13 Este 22 Este 0 1009 -1.1 56
2019-03-30 17:00:00 15.2 12 Este 25 Este 0 1008.9 -1.9 55
2019-03-30 16:00:00 15.3 16 Este 30 Este 0 1009.5 -2.4 56
2019-03-30 15:00:00 15.7 17 Nordeste 33 Este 0 1010.1 -2.4 56
2019-03-30 14:00:00 16.9 16 Nordeste 27 Nordeste 0 1010.8 -2.5 53
2019-03-30 13:00:00 15.5 12 Nordeste 26 Nordeste 0 1011.9 -1.7 55
2019-03-30 12:00:00 16.2 8 Este 21 Este 0 1012.5 -1.1 51
2019-03-30 11:00:00 13.7 5 Este 12 Este 0 1013.3 -0.1 64
2019-03-30 10:00:00 12.1 3 Sur 8 Este 0 1013.6 0.4 69
2019-03-30 09:00:00 10.9 2 Nordeste 4 Este 0 1013.6 0.7 75
2019-03-30 08:00:00 6.3 2 Este 6 Oeste 0 1013.4 0 88
2019-03-30 07:00:00 5.2 3 Sudoeste 7 Sudoeste 0 1013.2 -0.4 88
2019-03-30 06:00:00 5.2 0 Calma 6 Oeste 0 1012.9 -1.2 87
2019-03-30 05:00:00 5.8 3 Sudoeste 8 Sudoeste 0 1013.4 -1.3 86
2019-03-30 04:00:00 6.1 4 Oeste 12 Sudoeste 0 1013.6 -1.4 84
2019-03-30 03:00:00 7 6 Sudoeste 13 Sudoeste 0 1014.1 -1.2 83
2019-03-30 02:00:00 7.1 8 Oeste 13 Oeste 0 1014.7 -0.8 83
2019-03-30 01:00:00 7.1 9 Oeste 12 Oeste 0 1015 -0.5 83
2019-03-30 00:00:00 7.6 8 Oeste 10 Oeste 0 1015.3 0.1 80
2019-03-29 23:00:00 8.7 6 Sudoeste 8 Sudoeste 0 1015.5 1.2 76
2019-03-29 22:00:00 9.8 4 Oeste 7 Sudoeste 0 1015.5 1.4 76
2019-03-29 21:00:00 10.9 3 Nordeste 12 Nordeste 0 1015.2 1.4 74
2019-03-29 20:00:00 12.4 8 Nordeste 22 Este 0 1014.3 0.6 68
2019-03-29 19:00:00 14.2 15 Nordeste 24 Este 0 1014.1 0.4 57
2019-03-29 18:00:00 16.2 14 Este 33 Este 0 1013.8 -0.3 44
2019-03-29 17:00:00 17 20 Este 36 Nordeste 0 1013.7 -1.3 32
2019-03-29 16:00:00 17 19 Este 33 Nordeste 0 1013.7 -2 44
2019-03-29 15:00:00 17 19 Nordeste 30 Nordeste 0 1014.1 -2.3 43
2019-03-29 14:00:00 16.9 17 Nordeste 30 Nordeste 0 1015 -2 44
2019-03-29 13:00:00 18.3 16 Nordeste 30 Nordeste 0 1015.7 -1.5 36
2019-03-29 12:00:00 17.7 9 Nordeste 26 Nordeste 0 1016.4 -0.8 40
2019-03-29 11:00:00 16.7 8 Nordeste 17 Este 0 1017 -0.3 51
2019-03-29 10:00:00 15.1 3 Este 10 Nordeste 0 1017.2 0.3 55
2019-03-29 09:00:00 12 2 Noroeste 11 Sudoeste 0 1017.2 0.6 60
2019-03-29 08:00:00 8.7 7 Sudoeste 13 Sudoeste 0 1017.3 0.8 67
2019-03-29 07:00:00 7.5 5 Oeste 13 Sudoeste 0 1016.9 0.3 69
2019-03-29 06:00:00 8.2 7 Sudoeste 12 Sudoeste 0 1016.6 -0.1 67
2019-03-29 05:00:00 8.7 8 Sudoeste 17 Oeste 0 1016.5 -0.4 65
2019-03-29 04:00:00 8.8 9 Sudoeste 17 Oeste 0 1016.6 -0.4 65
2019-03-29 03:00:00 8.6 9 Sudoeste 23 Sudoeste 0 1016.7 -0.4 66
2019-03-29 02:00:00 9 13 Sudoeste 21 Sudoeste 0 1016.9 -0.1 65
2019-03-29 01:00:00 7.8 8 Oeste 14 Oeste 0 1017 0.1 73
2019-03-29 00:00:00 8.3 7 Oeste 12 Oeste 0 1017.1 0.6 74
2019-03-28 23:00:00 9.6 8 Oeste 13 Oeste 0 1017 1.4 75
2019-03-28 22:00:00 11 9 Sudoeste 13 Oeste 0 1016.9 1.8 73
2019-03-28 21:00:00 11.9 7 Sudoeste 12 Norte 0 1016.5 1.7 61
2019-03-28 20:00:00 12.8 8 Norte 13 Nordeste 0 1015.6 0.9 52
2019-03-28 19:00:00 15.7 9 Nordeste 18 Este 0 1015.1 0.2 38
2019-03-28 18:00:00 17.9 10 Este 26 Nordeste 0 1014.8 -0.6 26
2019-03-28 17:00:00 19 14 Nordeste 27 Nordeste 0 1014.7 -1.1 21
2019-03-28 16:00:00 19.4 18 Nordeste 30 Nordeste 0 1014.9 -1.5 19
2019-03-28 15:00:00 19.6 18 Nordeste 32 Este 0 1015.4 -1.7 20
2019-03-28 14:00:00 20.3 13 Nordeste 26 Este 0 1015.8 -1.7 18
2019-03-28 13:00:00 19.7 10 Nordeste 24 Nordeste 0 1016.4 -1.3 20
2019-03-28 12:00:00 19.2 5 Este 14 Este 0 1017.1 -0.7 20
2019-03-28 11:00:00 17.2 3 Este 12 Sur 0 1017.5 -0.3 27
2019-03-28 10:00:00 14.7 3 Sudeste 10 Sur 0 1017.7 0.1 33
2019-03-28 09:00:00 10.3 4 Sudeste 15 Oeste 0 1017.8 0.6 45
2019-03-28 08:00:00 5.6 7 Oeste 14 Oeste 0 1017.8 0.7 52
2019-03-28 07:00:00 3.7 10 Oeste 21 Sudoeste 0 1017.6 0.9 58
2019-03-28 06:00:00 3.7 10 Sudoeste 18 Sudoeste 0 1017.2 0.5 57
2019-03-28 05:00:00 4 8 Oeste 16 Oeste 0 1017.1 0.3 56
2019-03-28 04:00:00 5 9 Sudoeste 20 Sudoeste 0 1016.7 -0.2 52
2019-03-28 03:00:00 5.2 9 Oeste 20 Oeste 0 1016.7 0.1 53
2019-03-28 02:00:00 5.4 8 Oeste 17 Oeste 0 1016.8 0.7 56
2019-03-28 01:00:00 6.3 10 Oeste 18 Sudoeste 0 1016.9 1.5 52
2019-03-28 00:00:00 6.9 10 Sudoeste 18 Oeste 0 1016.6 1.9 54
2019-03-27 23:00:00 8.4 9 Sudoeste 14 Sudoeste 0 1016.1 2.1 58
2019-03-27 22:00:00 9.6 8 Oeste 12 Oeste 0 1015.4 2 50
2019-03-27 21:00:00 10 5 Noroeste 10 Sudeste 0 1014.7 1.9 50
2019-03-27 20:00:00 12.8 7 Este 18 Sur 0 1014 1 42
2019-03-27 19:00:00 15.8 12 Sudeste 22 Sudeste 0 1013.4 0.4 29
2019-03-27 18:00:00 17.3 10 Este 23 Nordeste 0 1012.8 -0.2 21
2019-03-27 17:00:00 18.2 14 Este 28 Este 0 1013 -0.3 22
2019-03-27 16:00:00 18.7 14 Este 28 Este 0 1013 -0.7 21
2019-03-27 15:00:00 18.7 15 Nordeste 33 Este 0 1013 -1.1 22
2019-03-27 14:00:00 18.8 13 Nordeste 31 Este 0 1013.3 -0.9 23
2019-03-27 13:00:00 18.3 8 Este 24 Nordeste 0 1013.7 -0.7 27
2019-03-27 12:00:00 17.4 10 Este 20 Nordeste 0 1014.1 -0.2 33
2019-03-27 11:00:00 16.3 4 Nordeste 13 Sudeste 0 1014.2 -0.1 39
2019-03-27 10:00:00 14 2 Sudoeste 12 Sudoeste 0 1014.4 0.6 47
2019-03-27 09:00:00 9.4 9 Sudoeste 17 Sudoeste 0 1014.3 0.7 62
2019-03-27 08:00:00 5.7 12 Sudoeste 17 Sudoeste 0 1014.3 0.9 75
2019-03-27 07:00:00 4.5 10 Sudoeste 16 Sudoeste 0 1013.8 0.4 80
2019-03-27 06:00:00 4.9 10 Sudoeste 17 Sudoeste 0 1013.6 -0.1 78
2019-03-27 05:00:00 5.5 9 Sudoeste 15 Sudoeste 0 1013.4 -0.6 77
2019-03-27 04:00:00 6 8 Sudoeste 17 Sudoeste 0 1013.4 -0.5 76
2019-03-27 03:00:00 6 8 Sudoeste 14 Sudoeste 0 1013.7 0 80
2019-03-27 02:00:00 6.2 6 Oeste 10 Oeste 0 1014 0.4 79
2019-03-27 01:00:00 7 3 Oeste 9 Oeste 0 1013.9 0.5 75
2019-03-27 00:00:00 8.8 7 Sudoeste 11 Oeste 0 1013.7 1.2 71